createdAt,value
2023-04-26T00:00:16.591Z,100.00
2023-04-26T00:02:44.332Z,100.00
2023-04-26T00:05:12.278Z,100.00
2023-04-26T00:07:40.207Z,100.00
2023-04-26T00:10:08.651Z,100.00
2023-04-26T00:12:37.364Z,100.00
2023-04-26T00:15:05.535Z,100.00
2023-04-26T00:17:33.373Z,100.00
2023-04-26T00:20:01.523Z,100.00
2023-04-26T00:22:29.001Z,100.00
2023-04-26T00:24:56.558Z,100.00
2023-04-26T00:27:24.011Z,100.00
2023-04-26T00:29:51.516Z,100.00
2023-04-26T00:32:19.003Z,100.00
2023-04-26T00:34:47.583Z,100.00
2023-04-26T00:37:15.411Z,100.00
2023-04-26T00:39:43.021Z,100.00
2023-04-26T00:42:10.818Z,100.00
2023-04-26T00:44:40.168Z,100.00
2023-04-26T00:47:07.749Z,100.00
2023-04-26T00:49:35.741Z,100.00
2023-04-26T00:52:03.648Z,100.00
2023-04-26T00:54:31.275Z,100.00
2023-04-26T00:56:59.040Z,100.00
2023-04-26T00:59:27.679Z,100.00
2023-04-26T01:01:56.184Z,100.00
2023-04-26T01:04:27.533Z,100.00
2023-04-26T01:06:56.887Z,100.00
2023-04-26T01:09:24.469Z,100.00
2023-04-26T01:11:52.928Z,100.00
2023-04-26T01:14:22.052Z,100.00
2023-04-26T01:16:50.210Z,100.00
2023-04-26T01:19:18.337Z,100.00
2023-04-26T01:21:46.241Z,100.00
2023-04-26T01:24:14.895Z,100.00
2023-04-26T01:26:46.640Z,100.00
2023-04-26T01:29:18.693Z,100.00
2023-04-26T01:31:47.235Z,100.00
2023-04-26T01:34:15.055Z,100.00
2023-04-26T01:36:42.881Z,100.00
2023-04-26T01:39:10.513Z,100.00
2023-04-26T01:41:38.398Z,100.00
2023-04-26T01:44:05.917Z,100.00
2023-04-26T01:46:33.753Z,100.00
2023-04-26T01:49:01.306Z,100.00
2023-04-26T01:51:30.752Z,100.00
2023-04-26T01:53:58.372Z,100.00
2023-04-26T01:56:26.109Z,100.00
2023-04-26T01:58:56.488Z,100.00
2023-04-26T02:01:24.358Z,100.00
2023-04-26T02:03:52.592Z,100.00
2023-04-26T02:06:21.558Z,100.00
2023-04-26T02:08:49.735Z,100.00
2023-04-26T02:11:17.373Z,100.00
2023-04-26T02:13:45.347Z,100.00
2023-04-26T02:16:12.826Z,100.00
2023-04-26T02:18:41.679Z,100.00
2023-04-26T02:21:11.208Z,100.00
2023-04-26T02:23:38.753Z,100.00
2023-04-26T02:26:06.470Z,100.00
2023-04-26T02:28:34.158Z,100.00
2023-04-26T02:31:02.880Z,100.00
2023-04-26T02:33:31.372Z,100.00
2023-04-26T02:35:59.230Z,100.00
2023-04-26T02:38:27.410Z,100.00
2023-04-26T02:41:02.063Z,100.00
2023-04-26T02:43:29.929Z,100.00
2023-04-26T02:46:01.562Z,100.00
2023-04-26T02:48:31.121Z,100.00
2023-04-26T02:50:58.708Z,100.00
2023-04-26T02:53:26.270Z,100.00
2023-04-26T02:55:54.544Z,100.00
2023-04-26T02:58:22.171Z,100.00
2023-04-26T03:00:49.934Z,100.00
2023-04-26T03:03:17.964Z,100.00
2023-04-26T03:05:46.841Z,100.00
2023-04-26T03:08:14.662Z,100.00
2023-04-26T03:10:45.785Z,100.00
2023-04-26T03:13:13.497Z,100.00
2023-04-26T03:15:46.053Z,100.00
2023-04-26T03:18:14.167Z,100.00
2023-04-26T03:20:42.294Z,100.00
2023-04-26T03:23:09.853Z,100.00
2023-04-26T03:25:37.895Z,100.00
2023-04-26T03:28:05.641Z,100.00
2023-04-26T03:30:33.125Z,100.00
2023-04-26T03:33:00.822Z,100.00
2023-04-26T03:35:28.752Z,100.00
2023-04-26T03:37:58.509Z,100.00
2023-04-26T03:40:27.497Z,100.00
2023-04-26T03:42:55.099Z,100.00
2023-04-26T03:45:22.562Z,100.00
2023-04-26T03:47:50.048Z,100.00
2023-04-26T03:50:17.824Z,100.00
2023-04-26T03:52:46.786Z,100.00
2023-04-26T03:55:14.520Z,100.00
2023-04-26T03:57:42.408Z,100.00
2023-04-26T04:00:14.522Z,100.00
2023-04-26T04:02:45.209Z,100.00
2023-04-26T04:05:21.583Z,100.00
2023-04-26T04:07:49.184Z,100.00
2023-04-26T04:10:17.269Z,100.00
2023-04-26T04:12:46.149Z,100.00
2023-04-26T04:15:13.678Z,100.00
2023-04-26T04:17:46.010Z,100.00
2023-04-26T04:20:14.221Z,100.00
2023-04-26T04:22:42.121Z,100.00
2023-04-26T04:25:10.614Z,100.00
2023-04-26T04:27:42.525Z,100.00
2023-04-26T04:30:10.962Z,100.00
2023-04-26T04:32:40.289Z,100.00
2023-04-26T04:35:08.650Z,100.00
2023-04-26T04:37:36.399Z,100.00
2023-04-26T04:40:04.829Z,100.00
2023-04-26T04:42:36.136Z,100.00
2023-04-26T04:45:07.599Z,100.00
2023-04-26T04:47:37.983Z,100.00
2023-04-26T04:50:07.259Z,100.00
2023-04-26T04:52:35.138Z,100.00
2023-04-26T04:55:03.921Z,100.00
2023-04-26T04:57:32.598Z,100.00
2023-04-26T05:00:07.352Z,100.00
2023-04-26T05:02:37.115Z,100.00
2023-04-26T05:05:06.238Z,100.00
2023-04-26T05:07:34.519Z,100.00
2023-04-26T05:10:04.069Z,100.00
2023-04-26T05:12:32.088Z,100.00
2023-04-26T05:14:59.720Z,100.00
2023-04-26T05:17:27.248Z,100.00
2023-04-26T05:19:55.600Z,100.00
2023-04-26T05:22:23.185Z,100.00
2023-04-26T05:24:54.285Z,100.00
2023-04-26T05:27:22.121Z,100.00
2023-04-26T05:30:06.547Z,100.00
2023-04-26T05:32:45.888Z,100.00
2023-04-26T05:35:26.452Z,100.00
2023-04-26T05:37:54.337Z,100.00
2023-04-26T05:40:22.749Z,100.00
2023-04-26T05:42:51.333Z,100.00
2023-04-26T05:45:18.955Z,100.00
2023-04-26T05:47:47.737Z,100.00
2023-04-26T05:50:15.544Z,100.00
2023-04-26T05:52:43.212Z,100.00
2023-04-26T05:55:10.923Z,100.00
2023-04-26T05:57:38.741Z,100.00
2023-04-26T06:00:09.949Z,100.00
2023-04-26T06:02:46.279Z,100.00
2023-04-26T06:05:18.304Z,100.00
2023-04-26T06:07:46.561Z,100.00
2023-04-26T06:10:14.211Z,100.00
2023-04-26T06:12:42.999Z,100.00
2023-04-26T06:15:11.430Z,100.00
2023-04-26T06:17:43.138Z,100.00
2023-04-26T06:20:11.011Z,100.00
2023-04-26T06:22:38.780Z,100.00
2023-04-26T06:25:07.511Z,100.00
2023-04-26T06:27:39.137Z,100.00
2023-04-26T06:30:07.895Z,100.00
2023-04-26T06:32:40.959Z,100.00
2023-04-26T06:35:09.497Z,100.00
2023-04-26T06:37:39.003Z,100.00
2023-04-26T06:40:08.615Z,100.00
2023-04-26T06:42:36.902Z,100.00
2023-04-26T06:45:23.161Z,100.00
2023-04-26T06:47:54.226Z,100.00
2023-04-26T06:50:24.815Z,100.00
2023-04-26T06:52:52.522Z,100.00
2023-04-26T06:55:21.303Z,100.00
2023-04-26T06:57:50.754Z,100.00
2023-04-26T07:00:18.492Z,100.00
2023-04-26T07:02:46.284Z,100.00
2023-04-26T07:05:15.460Z,100.00
2023-04-26T07:07:43.317Z,100.00
2023-04-26T07:10:11.154Z,100.00
2023-04-26T07:12:39.080Z,100.00
2023-04-26T07:15:07.364Z,100.00
2023-04-26T07:17:35.850Z,100.00
2023-04-26T07:20:04.190Z,100.00
2023-04-26T07:22:32.122Z,100.00
2023-04-26T07:24:59.548Z,100.00
2023-04-26T07:27:27.111Z,100.00
2023-04-26T07:29:56.251Z,100.00
2023-04-26T07:32:23.861Z,100.00
2023-04-26T07:34:51.406Z,100.00
2023-04-26T07:37:18.894Z,100.00
2023-04-26T07:39:46.742Z,100.00
2023-04-26T07:42:15.174Z,100.00
2023-04-26T07:44:42.840Z,100.00
2023-04-26T07:47:14.051Z,100.00
2023-04-26T07:49:41.632Z,100.00
2023-04-26T07:52:09.718Z,100.00
2023-04-26T07:54:40.308Z,100.00
2023-04-26T07:57:07.694Z,100.00
2023-04-26T07:59:35.420Z,100.00
2023-04-26T08:02:02.940Z,99.90
2023-04-26T08:04:34.322Z,98.55
2023-04-26T08:07:02.289Z,97.20
2023-04-26T08:09:30.890Z,95.48
2023-04-26T08:11:58.663Z,92.38
2023-04-26T08:14:27.483Z,91.22
2023-04-26T08:16:55.229Z,90.77
2023-04-26T08:19:22.852Z,89.76
2023-04-26T08:21:50.326Z,89.89
2023-04-26T08:24:17.948Z,88.83
2023-04-26T08:26:45.440Z,89.26
2023-04-26T08:29:12.991Z,87.80
2023-04-26T08:31:40.753Z,86.49
2023-04-26T08:34:13.529Z,86.39
2023-04-26T08:36:42.262Z,85.51
2023-04-26T08:39:12.341Z,86.02
2023-04-26T08:41:45.657Z,84.27
2023-04-26T08:44:13.202Z,83.77
2023-04-26T08:46:56.099Z,78.57
2023-04-26T08:49:53.162Z,79.24
2023-04-26T08:52:24.679Z,74.77
2023-04-26T08:54:53.716Z,73.26
2023-04-26T08:57:22.639Z,72.83
2023-04-26T08:59:52.866Z,71.93
2023-04-26T09:02:22.517Z,70.28
2023-04-26T09:04:50.837Z,65.33
2023-04-26T09:07:24.906Z,63.83
2023-04-26T09:09:54.983Z,60.53
2023-04-26T09:12:22.629Z,60.83
2023-04-26T09:14:50.429Z,59.04
2023-04-26T09:17:32.902Z,56.53
2023-04-26T09:20:01.408Z,56.84
2023-04-26T09:22:32.467Z,56.97
2023-04-26T09:25:01.171Z,56.38
2023-04-26T09:27:34.195Z,57.82
2023-04-26T09:30:11.196Z,59.19
2023-04-26T09:32:51.956Z,56.64
2023-04-26T09:35:22.429Z,57.16
2023-04-26T09:38:11.726Z,57.08
2023-04-26T09:40:45.464Z,57.28
2023-04-26T09:43:21.150Z,56.52
2023-04-26T09:45:54.176Z,56.28
2023-04-26T09:48:33.363Z,56.75
2023-04-26T09:51:03.912Z,57.21
2023-04-26T09:53:47.739Z,57.51
2023-04-26T09:56:22.069Z,55.91
2023-04-26T09:59:00.641Z,54.88
2023-04-26T10:01:30.580Z,53.38
2023-04-26T10:04:01.893Z,53.01
2023-04-26T10:06:30.415Z,51.98
2023-04-26T10:08:58.114Z,50.82
2023-04-26T10:11:27.177Z,49.93
2023-04-26T10:13:55.252Z,49.42
2023-04-26T10:16:23.878Z,48.53
2023-04-26T10:18:51.724Z,46.71
2023-04-26T10:21:39.602Z,45.45
2023-04-26T10:24:07.757Z,44.84
2023-04-26T10:26:55.699Z,45.36
2023-04-26T10:29:47.463Z,44.67
2023-04-26T10:32:18.248Z,45.56
2023-04-26T10:35:09.817Z,46.72
2023-04-26T10:37:37.786Z,47.78
2023-04-26T10:40:25.250Z,46.96
2023-04-26T10:43:15.846Z,47.58
2023-04-26T10:45:45.138Z,47.26
2023-04-26T10:48:19.957Z,48.41
2023-04-26T10:51:01.347Z,50.04
2023-04-26T10:53:30.264Z,49.51
2023-04-26T10:55:58.239Z,49.53
2023-04-26T10:58:30.538Z,50.07
2023-04-26T11:01:18.393Z,50.06
2023-04-26T11:03:58.982Z,50.44
2023-04-26T11:06:47.396Z,51.76
2023-04-26T11:09:48.282Z,51.73
2023-04-26T11:12:16.732Z,52.48
2023-04-26T11:14:46.410Z,51.51
2023-04-26T11:17:14.190Z,49.79
2023-04-26T11:19:42.066Z,49.32
2023-04-26T11:22:09.765Z,50.65
2023-04-26T11:24:38.912Z,52.41
2023-04-26T11:27:11.011Z,51.16
2023-04-26T11:29:39.431Z,51.67
2023-04-26T11:32:07.245Z,50.70
2023-04-26T11:34:37.715Z,52.16
2023-04-26T11:37:06.855Z,52.13
2023-04-26T11:39:35.861Z,52.38
2023-04-26T11:42:07.412Z,53.33
2023-04-26T11:44:36.100Z,53.89
2023-04-26T11:47:04.902Z,53.14
2023-04-26T11:49:39.342Z,54.61
2023-04-26T11:52:08.984Z,53.15
2023-04-26T11:54:37.940Z,52.52
2023-04-26T11:57:17.612Z,53.85
2023-04-26T11:59:46.016Z,57.02
2023-04-26T12:02:14.405Z,56.99
2023-04-26T12:04:42.402Z,57.39
2023-04-26T12:07:10.447Z,59.50
2023-04-26T12:09:42.719Z,58.25
2023-04-26T12:12:11.614Z,57.83
2023-04-26T12:14:40.660Z,57.27
2023-04-26T12:17:08.642Z,56.72
2023-04-26T12:19:40.678Z,55.22
2023-04-26T12:22:09.133Z,54.52
2023-04-26T12:24:39.801Z,54.00
2023-04-26T12:27:07.941Z,53.11
2023-04-26T12:29:35.728Z,53.06
2023-04-26T12:32:04.379Z,52.79
2023-04-26T12:34:32.171Z,54.13
2023-04-26T12:36:59.716Z,54.47
2023-04-26T12:39:27.259Z,52.18
2023-04-26T12:41:55.269Z,52.72
2023-04-26T12:44:22.949Z,54.04
2023-04-26T12:46:51.376Z,56.29
2023-04-26T12:49:18.873Z,58.01
2023-04-26T12:51:46.354Z,58.12
2023-04-26T12:54:13.856Z,59.64
2023-04-26T12:56:44.510Z,56.03
2023-04-26T12:59:12.191Z,53.48
2023-04-26T13:01:39.842Z,52.68
2023-04-26T13:04:07.711Z,51.55
2023-04-26T13:06:36.016Z,51.37
2023-04-26T13:09:03.869Z,51.81
2023-04-26T13:11:32.034Z,51.36
2023-04-26T13:13:59.756Z,51.46
2023-04-26T13:16:27.334Z,52.90
2023-04-26T13:18:56.137Z,53.65
2023-04-26T13:21:23.812Z,54.67
2023-04-26T13:23:51.470Z,55.75
2023-04-26T13:26:18.942Z,56.62
2023-04-26T13:28:47.592Z,56.94
2023-04-26T13:31:17.160Z,56.18
2023-04-26T13:33:45.778Z,57.51
2023-04-26T13:36:13.342Z,57.78
2023-04-26T13:38:40.857Z,57.26
2023-04-26T13:41:08.760Z,56.85
2023-04-26T13:43:36.291Z,57.04
2023-04-26T13:46:03.983Z,55.74
2023-04-26T13:48:32.044Z,54.50
2023-04-26T13:50:59.653Z,53.05
2023-04-26T13:53:27.196Z,51.02
2023-04-26T13:55:54.667Z,49.90
2023-04-26T13:58:22.873Z,49.64
2023-04-26T14:00:50.525Z,49.25
2023-04-26T14:03:18.912Z,48.37
2023-04-26T14:05:46.689Z,48.60
2023-04-26T14:08:14.611Z,49.12
2023-04-26T14:10:42.425Z,50.72
2023-04-26T14:13:10.239Z,49.66
2023-04-26T14:15:37.714Z,50.60
2023-04-26T14:18:05.363Z,50.81
2023-04-26T14:20:32.883Z,50.62
2023-04-26T14:23:00.504Z,50.61
2023-04-26T14:25:28.084Z,49.67
2023-04-26T14:27:55.598Z,49.82
2023-04-26T14:30:24.552Z,49.37
2023-04-26T14:32:52.014Z,49.56
2023-04-26T14:35:19.467Z,49.17
2023-04-26T14:37:47.097Z,49.12
2023-04-26T14:40:14.685Z,48.90
2023-04-26T14:42:45.956Z,49.08
2023-04-26T14:45:14.312Z,48.68
2023-04-26T14:47:42.044Z,48.67
2023-04-26T14:50:10.488Z,48.29
2023-04-26T14:52:38.008Z,49.13
2023-04-26T14:55:06.054Z,48.63
2023-04-26T14:57:34.580Z,48.42
2023-04-26T15:00:09.038Z,49.09
2023-04-26T15:02:36.954Z,49.35
2023-04-26T15:05:06.177Z,49.17
2023-04-26T15:07:34.222Z,49.28
2023-04-26T15:10:02.207Z,48.94
2023-04-26T15:12:30.029Z,48.07
2023-04-26T15:14:57.557Z,48.04
2023-04-26T15:17:25.123Z,47.01
2023-04-26T15:19:52.731Z,48.11
2023-04-26T15:22:20.638Z,47.42
2023-04-26T15:24:49.724Z,46.79
2023-04-26T15:27:17.715Z,45.73
2023-04-26T15:29:45.362Z,45.22
2023-04-26T15:32:13.168Z,44.64
2023-04-26T15:34:43.455Z,45.49
2023-04-26T15:37:11.631Z,45.87
2023-04-26T15:39:39.172Z,46.87
2023-04-26T15:42:06.811Z,46.94
2023-04-26T15:44:34.652Z,47.35
2023-04-26T15:49:30.142Z,50.30
2023-04-26T15:51:57.681Z,52.78
2023-04-26T15:54:26.565Z,53.98
2023-04-26T15:56:55.319Z,55.46
2023-04-26T15:59:22.838Z,56.85
2023-04-26T16:01:50.582Z,58.69
2023-04-26T16:04:18.275Z,59.45
2023-04-26T16:06:46.109Z,62.10
2023-04-26T16:09:25.371Z,63.85
2023-04-26T16:11:53.568Z,64.86
2023-04-26T16:14:21.046Z,65.67
2023-04-26T16:16:48.738Z,66.48
2023-04-26T16:19:17.521Z,66.80
2023-04-26T16:21:45.076Z,67.67
2023-04-26T16:24:12.769Z,67.81
2023-04-26T16:26:40.317Z,67.95
2023-04-26T16:29:08.601Z,68.59
2023-04-26T16:31:36.427Z,69.84
2023-04-26T16:34:03.999Z,68.93
2023-04-26T16:36:31.904Z,69.34
2023-04-26T16:38:59.466Z,69.75
2023-04-26T16:41:27.942Z,70.02
2023-04-26T16:43:56.123Z,69.93
2023-04-26T16:46:23.685Z,70.10
2023-04-26T16:48:51.625Z,70.16
2023-04-26T16:51:19.186Z,70.73
2023-04-26T16:53:46.803Z,71.11
2023-04-26T16:56:14.375Z,70.89
2023-04-26T16:58:42.192Z,71.20
2023-04-26T17:01:09.656Z,71.39
2023-04-26T17:03:37.273Z,72.24
2023-04-26T17:06:06.692Z,72.26
2023-04-26T17:08:34.170Z,73.07
2023-04-26T17:11:01.710Z,73.52
2023-04-26T17:13:30.799Z,73.62
2023-04-26T17:15:58.369Z,74.49
2023-04-26T17:18:26.027Z,75.22
2023-04-26T17:20:56.260Z,75.15
2023-04-26T17:23:24.632Z,75.88
2023-04-26T17:25:54.427Z,75.68
2023-04-26T17:28:23.397Z,75.97
2023-04-26T17:30:50.881Z,75.60
2023-04-26T17:33:18.953Z,77.06
2023-04-26T17:35:47.361Z,76.25
2023-04-26T17:38:15.262Z,77.05
2023-04-26T17:40:42.892Z,75.70
2023-04-26T17:43:11.329Z,75.89
2023-04-26T17:45:38.958Z,75.65
2023-04-26T17:48:11.098Z,75.78
2023-04-26T17:50:39.621Z,76.83
2023-04-26T17:53:07.335Z,76.24
2023-04-26T17:55:35.109Z,76.19
2023-04-26T17:58:02.615Z,76.66
2023-04-26T18:00:30.226Z,76.71
2023-04-26T18:02:58.087Z,77.20
2023-04-26T18:05:26.209Z,78.09
2023-04-26T18:07:53.981Z,79.10
2023-04-26T18:10:22.008Z,79.20
2023-04-26T18:12:49.605Z,78.57
2023-04-26T18:15:17.239Z,78.70
2023-04-26T18:17:46.593Z,78.63
2023-04-26T18:20:14.301Z,79.06
2023-04-26T18:22:42.060Z,78.93
2023-04-26T18:25:09.755Z,78.95
2023-04-26T18:27:37.466Z,79.57
2023-04-26T18:30:06.967Z,79.54
2023-04-26T18:32:34.713Z,79.74
2023-04-26T18:35:05.071Z,80.18
2023-04-26T18:37:33.118Z,80.63
2023-04-26T18:40:00.869Z,80.71
2023-04-26T18:42:28.663Z,80.49
2023-04-26T18:44:56.719Z,80.84
2023-04-26T18:47:24.316Z,81.57
2023-04-26T18:49:51.867Z,81.63
2023-04-26T18:52:19.363Z,82.15
2023-04-26T18:54:47.017Z,82.47
2023-04-26T18:57:15.846Z,82.55
2023-04-26T18:59:43.302Z,82.83
2023-04-26T19:02:11.610Z,82.80
2023-04-26T19:04:39.607Z,82.77
2023-04-26T19:07:07.316Z,83.23
2023-04-26T19:09:46.867Z,83.48
2023-04-26T19:12:21.124Z,83.58
2023-04-26T19:14:48.793Z,83.96
2023-04-26T19:17:16.484Z,83.70
2023-04-26T19:19:44.017Z,83.68
2023-04-26T19:22:11.854Z,84.11
2023-04-26T19:24:39.444Z,83.84
2023-04-26T19:27:06.938Z,83.96
2023-04-26T19:29:34.574Z,84.30
2023-04-26T19:32:04.618Z,84.83
2023-04-26T19:34:34.995Z,84.66
2023-04-26T19:37:03.515Z,84.60
2023-04-26T19:39:31.379Z,84.95
2023-04-26T19:42:01.366Z,85.31
2023-04-26T19:44:28.785Z,85.36
2023-04-26T19:46:56.737Z,85.61
2023-04-26T19:49:25.412Z,85.88
2023-04-26T19:51:54.262Z,85.96
2023-04-26T19:54:21.832Z,86.71
2023-04-26T19:56:49.428Z,86.42
2023-04-26T19:59:17.048Z,86.45
2023-04-26T20:01:44.584Z,86.98
2023-04-26T20:04:12.249Z,87.53
2023-04-26T20:06:40.207Z,87.69
2023-04-26T20:09:08.160Z,87.57
2023-04-26T20:11:37.536Z,87.61
2023-04-26T20:14:05.097Z,88.25
2023-04-26T20:16:34.111Z,88.19
2023-04-26T20:19:01.740Z,88.41
2023-04-26T20:21:29.356Z,88.95
2023-04-26T20:23:56.888Z,88.92
2023-04-26T20:26:24.502Z,89.42
2023-04-26T20:28:52.342Z,89.57
2023-04-26T20:31:20.020Z,89.88
2023-04-26T20:33:47.806Z,92.24
2023-04-26T20:36:15.928Z,92.75
2023-04-26T20:38:43.573Z,93.18
2023-04-26T20:41:11.036Z,94.28
2023-04-26T20:43:39.533Z,94.23
2023-04-26T20:46:07.354Z,94.98
2023-04-26T20:48:35.632Z,96.21
2023-04-26T20:51:03.453Z,94.94
2023-04-26T20:53:31.204Z,95.30
2023-04-26T20:56:15.103Z,95.69
2023-04-26T20:58:50.956Z,96.28
2023-04-26T21:01:19.065Z,96.58
2023-04-26T21:03:47.164Z,97.19
2023-04-26T21:06:15.045Z,97.61
2023-04-26T21:08:43.579Z,97.23
2023-04-26T21:11:11.435Z,96.88
2023-04-26T21:13:39.250Z,97.88
2023-04-26T21:16:07.262Z,98.37
2023-04-26T21:18:35.550Z,99.60
2023-04-26T21:21:05.510Z,100.00
2023-04-26T21:23:34.657Z,100.00
2023-04-26T21:26:09.172Z,100.00
2023-04-26T21:28:39.781Z,100.00
2023-04-26T21:31:13.121Z,100.00
2023-04-26T21:33:43.058Z,100.00
2023-04-26T21:36:11.352Z,100.00
2023-04-26T21:38:38.875Z,100.00
2023-04-26T21:41:06.444Z,100.00
2023-04-26T21:43:34.254Z,100.00
2023-04-26T21:46:01.942Z,100.00
2023-04-26T21:48:32.086Z,100.00
2023-04-26T21:50:59.892Z,100.00
2023-04-26T21:53:27.589Z,100.00
2023-04-26T21:55:55.404Z,100.00
2023-04-26T21:58:23.681Z,100.00
2023-04-26T22:00:51.832Z,100.00
2023-04-26T22:03:20.135Z,100.00
2023-04-26T22:05:47.904Z,100.00
2023-04-26T22:08:17.190Z,100.00
2023-04-26T22:10:44.968Z,100.00
2023-04-26T22:13:12.909Z,100.00
2023-04-26T22:15:41.191Z,100.00
2023-04-26T22:18:08.845Z,100.00
2023-04-26T22:20:36.547Z,100.00
2023-04-26T22:23:04.206Z,100.00
2023-04-26T22:25:31.895Z,100.00
2023-04-26T22:27:59.651Z,100.00
2023-04-26T22:30:27.334Z,100.00
2023-04-26T22:32:58.166Z,100.00
2023-04-26T22:35:27.654Z,100.00
2023-04-26T22:37:55.502Z,100.00
2023-04-26T22:40:23.197Z,100.00
2023-04-26T22:42:50.958Z,100.00
2023-04-26T22:45:20.413Z,100.00
2023-04-26T22:47:48.147Z,100.00
2023-04-26T22:50:15.907Z,100.00
2023-04-26T22:52:43.508Z,100.00
2023-04-26T22:55:11.417Z,100.00
2023-04-26T22:57:39.379Z,100.00
2023-04-26T23:00:10.224Z,100.00
2023-04-26T23:02:38.383Z,100.00
2023-04-26T23:05:09.678Z,100.00
2023-04-26T23:07:38.469Z,100.00
2023-04-26T23:10:07.018Z,100.00
2023-04-26T23:12:36.327Z,100.00
2023-04-26T23:15:05.398Z,100.00
2023-04-26T23:17:34.336Z,100.00
2023-04-26T23:20:02.123Z,100.00
2023-04-26T23:22:29.821Z,100.00
2023-04-26T23:24:57.274Z,100.00
2023-04-26T23:27:24.939Z,100.00
2023-04-26T23:29:52.953Z,100.00
2023-04-26T23:32:20.630Z,100.00
2023-04-26T23:34:48.295Z,100.00
2023-04-26T23:37:16.298Z,100.00
2023-04-26T23:39:44.200Z,100.00
2023-04-26T23:42:11.771Z,100.00
2023-04-26T23:44:39.897Z,100.00
2023-04-26T23:47:07.497Z,100.00
2023-04-26T23:49:35.328Z,100.00
2023-04-26T23:52:02.896Z,100.00
2023-04-26T23:54:31.440Z,100.00
2023-04-26T23:56:59.243Z,100.00
2023-04-26T23:59:26.799Z,100.00
